Piper — WDE6779 — position and weather

sailwx.info

Track history (hours):
 
Tides and Currents Weather Stations Pressure Air Temp Water Temp Dewpoint Dewpoint Depression Visibility Wind Speed Wind Dir Waves Ship Positions

Piper

Owner: ADS MARINE, LLC, MORGAN CITY, LA. More information available from US FCC via Universal Licensing System and Coast Guard Vessel Documentation Center.

Last reported at 2016-Apr-08 11:05 UTC. Time now 2016-May-04 09:46 UTC.
Position N 28°50' W 091°44'.
Warning: this ship's position is 25 days out of date.

Length 40 m; draft 3 m.

Type: Cargo ship. MMSI: 367384720.

Date/timePositionNaut miles runAvg speedWind from/ knotsBaromVisibWave heightAir tempDewpointWater temp
2016-Apr-08 11:05N 28°50' W 091°44'0 0.0
2016-Apr-08 10:33N 28°50' W 091°44'0 0.0
2016-Apr-08 09:33N 28°50' W 091°44'0 0.0
2016-Apr-08 08:33N 28°50' W 091°44'0 0.0
2016-Apr-08 07:33N 28°50' W 091°44'0 0.0
2016-Apr-08 06:33N 28°50' W 091°44'0 0.0
2016-Apr-08 05:33N 28°50' W 091°44'0 0.0
2016-Apr-08 04:33N 28°50' W 091°44'0 0.0
2016-Apr-08 03:29N 28°50' W 091°44'0 0.0
2016-Apr-08 02:33N 28°50' W 091°44'3 0.2
2016-Apr-07 14:32N 28°47' W 091°44'1 0.2
2016-Apr-07 10:33N 28°47' W 091°44'2 2.4
2016-Apr-07 09:32N 28°49' W 091°44'62 2.0
2016-Apr-06 02:17N 29°47' W 092°11'0 0.5
2016-Apr-06 01:30N 29°47' W 092°11'6 0.5
2016-Apr-05 14:32N 29°42' W 092°15'8 7.9
2016-Apr-05 13:31N 29°35' W 092°18'4 4.2
2016-Apr-05 12:32N 29°31' W 092°19'8 8.2
2016-Apr-05 11:33N 29°22' W 092°20'12 9.4
2016-Apr-05 10:14N 29°10' W 092°19'  
2016-Mar-30 11:30N 29°10' W 092°20'  
Track history (hours):
 
Tides and Currents Weather Stations Pressure Air Temp Water Temp Dewpoint Dewpoint Depression Visibility Wind Speed Wind Dir Waves Ship Positions

Piper

Owner: ADS MARINE, LLC, MORGAN CITY, LA. More information available from US FCC via Universal Licensing System and Coast Guard Vessel Documentation Center.

Last reported at 2016-Apr-08 11:05 UTC. Time now 2016-May-04 09:46 UTC.
Position N 28°50' W 091°44'.
Warning: this ship's position is 25 days out of date.

Length 40 m; draft 3 m.

Type: Cargo ship. MMSI: 367384720.

Date/timePositionNaut miles runAvg speedWind from/ knotsBaromVisibWave heightAir tempDewpointWater temp
2016-Apr-08 11:05N 28°50' W 091°44'0 0.0
2016-Apr-08 10:33N 28°50' W 091°44'0 0.0
2016-Apr-08 09:33N 28°50' W 091°44'0 0.0
2016-Apr-08 08:33N 28°50' W 091°44'0 0.0
2016-Apr-08 07:33N 28°50' W 091°44'0 0.0
2016-Apr-08 06:33N 28°50' W 091°44'0 0.0
2016-Apr-08 05:33N 28°50' W 091°44'0 0.0
2016-Apr-08 04:33N 28°50' W 091°44'0 0.0
2016-Apr-08 03:29N 28°50' W 091°44'0 0.0
2016-Apr-08 02:33N 28°50' W 091°44'3 0.2
2016-Apr-07 14:32N 28°47' W 091°44'1 0.2
2016-Apr-07 10:33N 28°47' W 091°44'2 2.4
2016-Apr-07 09:32N 28°49' W 091°44'62 2.0
2016-Apr-06 02:17N 29°47' W 092°11'0 0.5
2016-Apr-06 01:30N 29°47' W 092°11'6 0.5
2016-Apr-05 14:32N 29°42' W 092°15'8 7.9
2016-Apr-05 13:31N 29°35' W 092°18'4 4.2
2016-Apr-05 12:32N 29°31' W 092°19'8 8.2
2016-Apr-05 11:33N 29°22' W 092°20'12 9.4
2016-Apr-05 10:14N 29°10' W 092°19'  
2016-Mar-30 11:30N 29°10' W 092°20'  

Dump ship's entire track history